Time;durP1;ratioP1;P1;durP2;ratioP2;P2;SDS_P1;SDS_P2;PMS_P1;PMS_P2;Temp;Humidity;BMP_temperature;BMP_pressure;BME280_temperature;BME280_humidity;BME280_pressure;Samples;Min_cycle;Max_cycle;Signal;HPM_P1;HPM_P2
2022/12/22 03:27:42;;;;;;;;;;;9.90;99.90;;;;;;5112730;28;20450;-72
2022/12/22 03:30:09;;;;;;;;;;;9.90;99.90;;;;;;5097872;28;20299;-72
2022/12/22 03:32:37;;;;;;;;;;;9.90;99.90;;;;;;5103204;28;19928;-72
2022/12/22 03:35:04;;;;;;;;;;;10.00;99.90;;;;;;5103940;28;19967;-72
2022/12/22 03:37:31;;;;;;;;;;;10.00;99.90;;;;;;5105283;28;20379;-72
2022/12/22 03:39:57;;;;;;;;;;;10.00;99.90;;;;;;5109691;28;20397;-72
2022/12/22 03:47:55;;;;;;;;;;;9.90;99.90;;;;;;5104650;28;19935;-72
2022/12/22 03:50:21;;;;;;;;;;;9.90;99.90;;;;;;5102777;28;19924;-72
2022/12/22 03:52:48;;;;;;;;;;;9.90;99.90;;;;;;5108996;28;19924;-71
2022/12/22 03:55:14;;;;;;;;;;;9.90;99.90;;;;;;5099775;28;19931;-71
2022/12/22 03:57:41;;;;;;;;;;;9.90;99.90;;;;;;5108849;28;20018;-71
2022/12/22 04:00:08;;;;;;;;;;;10.00;99.90;;;;;;5098008;28;19930;-72
2022/12/22 04:02:35;;;;;;;;;;;9.90;99.90;;;;;;5103292;28;19938;-72
2022/12/22 04:05:03;;;;;;;;;;;10.00;99.90;;;;;;5104457;28;20034;-72
2022/12/22 04:07:30;;;;;;;;;;;10.00;99.90;;;;;;5110074;28;20023;-71
2022/12/22 04:12:56;;;;;;;;;;;9.90;99.90;;;;;;5075828;28;20010;-72
2022/12/22 04:15:24;;;;;;;;;;;9.90;99.90;;;;;;5100889;28;20006;-72
2022/12/22 04:17:50;;;;;;;;;;;9.90;99.90;;;;;;5103362;28;20066;-72
2022/12/22 04:20:20;;;;;;;;;;;9.90;99.90;;;;;;5099778;28;20014;-72
2022/12/22 04:22:46;;;;;;;;;;;9.90;99.90;;;;;;5106675;28;20019;-73
2022/12/22 04:25:13;;;;;;;;;;;9.80;99.90;;;;;;5109511;28;19928;-71
2022/12/22 04:27:40;;;;;;;;;;;9.80;99.90;;;;;;5112676;28;19923;-72
2022/12/22 04:30:07;;;;;;;;;;;9.70;99.90;;;;;;5109285;28;19923;-72
2022/12/22 04:32:34;;;;;;;;;;;9.70;99.90;;;;;;5101904;28;19924;-73
2022/12/22 04:35:01;;;;;;;;;;;9.70;99.90;;;;;;5105289;28;20029;-72
2022/12/22 04:37:29;;;;;;;;;;;9.70;99.90;;;;;;5097641;28;19924;-72
2022/12/22 04:39:55;;;;;;;;;;;9.80;99.90;;;;;;5101157;28;20038;-72
2022/12/22 04:42:22;;;;;;;;;;;9.70;99.90;;;;;;5105437;28;19924;-71
2022/12/22 04:44:49;;;;;;;;;;;9.80;99.90;;;;;;5110516;28;20023;-72
2022/12/22 04:47:15;;;;;;;;;;;9.70;99.90;;;;;;5111343;28;19924;-71
2022/12/22 04:49:42;;;;;;;;;;;9.70;99.90;;;;;;5106119;28;19923;-71
2022/12/22 04:52:09;;;;;;;;;;;9.70;99.90;;;;;;5113452;28;19930;-72
2022/12/22 04:54:37;;;;;;;;;;;9.70;99.90;;;;;;5103479;28;19974;-72
2022/12/22 04:57:03;;;;;;;;;;;9.70;99.90;;;;;;5104904;28;20390;-73
2022/12/22 04:59:30;;;;;;;;;;;9.70;99.90;;;;;;5114884;28;19924;-72
2022/12/22 05:01:57;;;;;;;;;;;9.60;99.90;;;;;;5108969;28;19942;-72
2022/12/22 05:04:24;;;;;;;;;;;9.60;99.90;;;;;;5105675;27;20012;-73
2022/12/22 05:06:50;;;;;;;;;;;9.60;99.90;;;;;;5106830;28;19924;-73
2022/12/22 05:09:17;;;;;;;;;;;9.60;99.90;;;;;;5111327;28;19923;-72
2022/12/22 05:11:45;;;;;;;;;;;9.60;99.90;;;;;;5102379;28;20374;-72
2022/12/22 05:14:12;;;;;;;;;;;9.50;99.90;;;;;;5098539;28;19924;-72
2022/12/22 05:16:38;;;;;;;;;;;9.50;99.90;;;;;;5110569;28;20018;-71
2022/12/22 05:19:05;;;;;;;;;;;9.60;99.90;;;;;;5108311;28;19928;-69
2022/12/22 05:21:32;;;;;;;;;;;9.60;99.90;;;;;;5102368;28;19930;-71
2022/12/22 05:23:58;;;;;;;;;;;9.60;99.90;;;;;;5109923;28;19974;-72
2022/12/22 05:26:25;;;;;;;;;;;9.60;99.90;;;;;;5112276;28;19924;-72
2022/12/22 05:28:53;;;;;;;;;;;9.60;99.90;;;;;;5111437;28;20014;-73
2022/12/22 05:31:20;;;;;;;;;;;9.70;99.90;;;;;;5106757;28;19927;-73
2022/12/22 05:33:47;;;;;;;;;;;9.70;99.90;;;;;;5105746;28;20417;-73
2022/12/22 05:36:14;;;;;;;;;;;9.80;99.90;;;;;;5109303;28;19962;-73
2022/12/22 05:38:40;;;;;;;;;;;9.70;99.90;;;;;;5103892;28;19923;-73
2022/12/22 05:41:07;;;;;;;;;;;9.70;99.90;;;;;;5108754;28;20066;-72
2022/12/22 05:43:35;;;;;;;;;;;9.70;99.90;;;;;;5105259;28;20302;-74
2022/12/22 05:46:04;;;;;;;;;;;9.70;99.90;;;;;;5101825;28;19932;-73
2022/12/22 05:48:31;;;;;;;;;;;9.70;99.90;;;;;;5101280;28;20010;-73
2022/12/22 05:50:57;;;;;;;;;;;9.70;99.90;;;;;;5103968;28;19928;-73
2022/12/22 05:53:24;;;;;;;;;;;9.70;99.90;;;;;;5103755;28;20022;-74
2022/12/22 05:55:52;;;;;;;;;;;9.70;99.90;;;;;;5105822;27;19977;-73
2022/12/22 05:58:19;;;;;;;;;;;9.70;99.90;;;;;;5099186;28;20390;-72
2022/12/22 06:00:45;;;;;;;;;;;9.80;99.90;;;;;;5109132;28;20477;-71
2022/12/22 06:03:13;;;;;;;;;;;9.70;99.90;;;;;;5102234;28;19928;-72
2022/12/22 06:05:40;;;;;;;;;;;9.70;99.90;;;;;;5104652;28;19934;-72
2022/12/22 06:08:07;;;;;;;;;;;9.70;99.90;;;;;;5104352;28;19955;-72
2022/12/22 06:10:33;;;;;;;;;;;9.70;99.90;;;;;;5102842;28;19974;-71
2022/12/22 06:13:00;;;;;;;;;;;9.70;99.90;;;;;;5103602;28;19938;-72
2022/12/22 06:15:27;;;;;;;;;;;9.70;99.90;;;;;;5105044;28;19924;-72
2022/12/22 06:17:54;;;;;;;;;;;9.70;99.90;;;;;;5104231;28;20039;-71
2022/12/22 06:20:22;;;;;;;;;;;9.70;99.90;;;;;;5103609;28;19930;-71
2022/12/22 06:22:48;;;;;;;;;;;9.70;99.90;;;;;;5104801;28;20325;-71
2022/12/22 06:25:15;;;;;;;;;;;9.60;99.90;;;;;;5100429;28;20327;-70
2022/12/22 06:27:42;;;;;;;;;;;9.60;99.90;;;;;;5109154;28;19939;-71
2022/12/22 06:30:09;;;;;;;;;;;9.70;99.90;;;;;;5108247;28;20010;-72
2022/12/22 06:32:36;;;;;;;;;;;9.60;99.90;;;;;;5111193;28;19938;-71
2022/12/22 06:35:03;;;;;;;;;;;9.60;99.90;;;;;;5109241;28;20279;-72
2022/12/22 06:37:31;;;;;;;;;;;9.50;99.90;;;;;;5110757;28;19930;-73
2022/12/22 06:39:58;;;;;;;;;;;9.50;99.90;;;;;;5108861;28;19927;-72
2022/12/22 06:45:09;;;;;;;;;;;9.60;99.90;;;;;;5111417;28;20298;-71
2022/12/22 06:47:36;;;;;;;;;;;9.50;99.90;;;;;;5102497;28;20008;-71
2022/12/22 06:50:02;;;;;;;;;;;9.50;99.90;;;;;;5111927;28;19924;-72
2022/12/22 06:52:30;;;;;;;;;;;9.50;99.90;;;;;;5110463;28;19923;-72
2022/12/22 06:54:57;;;;;;;;;;;9.40;99.90;;;;;;5103252;28;19924;-72
2022/12/22 06:57:24;;;;;;;;;;;9.50;99.90;;;;;;5099563;28;19932;-72
2022/12/22 06:59:50;;;;;;;;;;;9.50;99.90;;;;;;5103669;28;20409;-72
2022/12/22 07:02:17;;;;;;;;;;;9.50;99.90;;;;;;5108996;27;19945;-73
2022/12/22 07:04:44;;;;;;;;;;;9.40;99.90;;;;;;5106071;28;20006;-72
2022/12/22 07:07:11;;;;;;;;;;;9.40;99.90;;;;;;5111044;28;19924;-71
2022/12/22 07:09:39;;;;;;;;;;;9.30;99.90;;;;;;5105473;28;19928;-72
2022/12/22 07:12:05;;;;;;;;;;;9.40;99.90;;;;;;5104624;28;19946;-73
2022/12/22 07:14:32;;;;;;;;;;;9.40;99.90;;;;;;5102282;28;20412;-72
2022/12/22 07:16:59;;;;;;;;;;;9.40;99.90;;;;;;5101475;28;19943;-72
2022/12/22 07:19:26;;;;;;;;;;;9.50;99.90;;;;;;5100408;28;20014;-71
2022/12/22 07:21:52;;;;;;;;;;;9.60;99.90;;;;;;5102710;28;19930;-67
2022/12/22 07:24:23;;;;;;;;;;;9.50;99.90;;;;;;5098718;28;20394;-73
2022/12/22 07:26:51;;;;;;;;;;;9.40;99.90;;;;;;5106200;28;20008;-73
2022/12/22 07:29:18;;;;;;;;;;;9.30;99.90;;;;;;5103581;28;19924;-72
2022/12/22 07:31:45;;;;;;;;;;;9.20;99.90;;;;;;5103199;28;20352;-73
2022/12/22 07:34:12;;;;;;;;;;;9.10;99.90;;;;;;5102602;28;19981;-72
2022/12/22 07:36:39;;;;;;;;;;;9.10;99.90;;;;;;5112776;28;19931;-73
2022/12/22 07:39:05;;;;;;;;;;;9.00;99.90;;;;;;5101249;28;19924;-74
2022/12/22 07:44:29;;;;;;;;;;;9.00;99.90;;;;;;5086077;28;19924;-74
2022/12/22 07:46:56;;;;;;;;;;;8.90;99.90;;;;;;5099525;28;19927;-74
2022/12/22 07:52:07;;;;;;;;;;;8.90;99.90;;;;;;5111473;28;20025;-73
2022/12/22 07:54:34;;;;;;;;;;;8.80;99.90;;;;;;5102895;28;19956;-75
2022/12/22 07:57:02;;;;;;;;;;;8.80;99.90;;;;;;5107111;28;19930;-74
2022/12/22 07:59:30;;;;;;;;;;;8.80;99.90;;;;;;5099322;28;20465;-74
2022/12/22 08:01:56;;;;;;;;;;;8.80;99.90;;;;;;5091530;28;19924;-74
2022/12/22 08:04:23;;;;;;;;;;;8.80;99.90;;;;;;5093746;28;20407;-74
2022/12/22 08:06:50;;;;;;;;;;;8.70;99.90;;;;;;5091223;28;19959;-76
2022/12/22 08:09:20;;;;;;;;;;;8.70;99.90;;;;;;5094924;28;20023;-74
2022/12/22 08:11:47;;;;;;;;;;;8.60;99.90;;;;;;5105757;28;19931;-74
2022/12/22 08:14:14;;;;;;;;;;;8.60;99.90;;;;;;5096971;28;20298;-74
2022/12/22 08:16:42;;;;;;;;;;;8.60;99.90;;;;;;5102861;28;19977;-75
2022/12/22 08:19:09;;;;;;;;;;;8.60;99.90;;;;;;5103518;28;20020;-75
2022/12/22 08:21:36;;;;;;;;;;;8.60;99.90;;;;;;5097706;28;20258;-73
2022/12/22 08:24:02;;;;;;;;;;;8.70;99.90;;;;;;5101317;28;19932;-73
2022/12/22 08:26:32;;;;;;;;;;;8.80;99.90;;;;;;5100622;28;20271;-74
2022/12/22 08:29:02;;;;;;;;;;;8.80;99.90;;;;;;5103928;28;19924;-75
2022/12/22 08:31:29;;;;;;;;;;;8.80;99.90;;;;;;5111794;28;20307;-74
2022/12/22 08:34:01;;;;;;;;;;;8.90;99.90;;;;;;5104899;28;19924;-76
2022/12/22 08:36:29;;;;;;;;;;;8.90;99.90;;;;;;5103511;28;19924;-75
2022/12/22 08:38:56;;;;;;;;;;;8.90;99.90;;;;;;5101320;28;20022;-76
2022/12/22 08:44:03;;;;;;;;;;;9.00;99.90;;;;;;5104918;28;19936;-76
2022/12/22 08:46:30;;;;;;;;;;;9.00;99.90;;;;;;5107516;28;20022;-75
2022/12/22 08:48:58;;;;;;;;;;;9.00;99.90;;;;;;5103494;28;19930;-75
2022/12/22 08:51:25;;;;;;;;;;;9.00;99.90;;;;;;5109557;28;19928;-75
2022/12/22 08:53:51;;;;;;;;;;;8.90;99.90;;;;;;5100896;28;20007;-73
2022/12/22 08:56:18;;;;;;;;;;;9.00;99.90;;;;;;5104645;28;19927;-75
2022/12/22 08:58:45;;;;;;;;;;;9.00;99.90;;;;;;5099831;28;20005;-71
2022/12/22 09:01:15;;;;;;;;;;;9.10;99.90;;;;;;5102570;28;19948;-70
2022/12/22 09:03:42;;;;;;;;;;;9.40;99.90;;;;;;5102169;28;19924;-74
2022/12/22 09:06:10;;;;;;;;;;;9.50;99.90;;;;;;5113203;28;19974;-75
2022/12/22 09:08:36;;;;;;;;;;;9.40;99.90;;;;;;5111240;28;20074;-75
2022/12/22 09:11:03;;;;;;;;;;;9.30;99.90;;;;;;5106966;27;20014;-73
2022/12/22 09:13:30;;;;;;;;;;;9.20;99.90;;;;;;5104606;27;20430;-75
2022/12/22 09:15:57;;;;;;;;;;;9.30;99.90;;;;;;5104576;28;19930;-74
2022/12/22 09:18:23;;;;;;;;;;;9.30;99.90;;;;;;5100402;27;19931;-76
2022/12/22 09:20:54;;;;;;;;;;;9.30;99.90;;;;;;5108956;28;19930;-75
2022/12/22 09:23:22;;;;;;;;;;;9.80;99.90;;;;;;5107208;28;19931;-78
2022/12/22 09:25:49;;;;;;;;;;;9.70;99.90;;;;;;5096355;28;20027;-76
2022/12/22 09:28:16;;;;;;;;;;;9.50;99.90;;;;;;5107781;28;20437;-75
2022/12/22 09:30:43;;;;;;;;;;;9.50;99.90;;;;;;5111211;28;19931;-76
2022/12/22 09:33:09;;;;;;;;;;;9.30;99.90;;;;;;5099376;28;19930;-75
2022/12/22 09:35:40;;;;;;;;;;;9.40;99.90;;;;;;5093934;28;19924;-76
2022/12/22 09:38:07;;;;;;;;;;;9.50;99.90;;;;;;5107321;28;20010;-74
2022/12/22 09:40:35;;;;;;;;;;;9.60;99.90;;;;;;5108293;28;19992;-75
2022/12/22 09:43:03;;;;;;;;;;;9.70;99.90;;;;;;5113519;28;19924;-73
2022/12/22 09:45:32;;;;;;;;;;;9.70;99.90;;;;;;5112978;28;20010;-74
2022/12/22 09:48:00;;;;;;;;;;;9.70;99.90;;;;;;5111301;28;19931;-74
2022/12/22 09:50:27;;;;;;;;;;;9.60;99.90;;;;;;5110651;28;19967;-74
2022/12/22 09:52:55;;;;;;;;;;;9.70;99.90;;;;;;5093970;28;20012;-76
2022/12/22 09:55:30;;;;;;;;;;;9.60;99.90;;;;;;5109701;28;20378;-77
2022/12/22 09:57:58;;;;;;;;;;;9.60;99.90;;;;;;5112932;28;19928;-80
2022/12/22 10:00:26;;;;;;;;;;;9.60;99.90;;;;;;5110808;28;20022;-78
2022/12/22 10:02:56;;;;;;;;;;;9.60;99.90;;;;;;5105318;28;19924;-77
2022/12/22 10:05:31;;;;;;;;;;;9.70;99.90;;;;;;5115711;28;20018;-77
2022/12/22 10:08:00;;;;;;;;;;;9.70;99.90;;;;;;5119197;28;19924;-76
2022/12/22 10:10:29;;;;;;;;;;;9.50;99.90;;;;;;5118969;28;19927;-77
2022/12/22 10:12:57;;;;;;;;;;;9.50;99.90;;;;;;5117610;28;19966;-78
2022/12/22 10:15:25;;;;;;;;;;;9.50;99.90;;;;;;5109895;28;19924;-75
2022/12/22 10:17:53;;;;;;;;;;;9.50;99.90;;;;;;5110191;28;19950;-76
2022/12/22 10:20:21;;;;;;;;;;;9.50;99.90;;;;;;5108536;28;19946;-77
2022/12/22 10:22:49;;;;;;;;;;;9.50;99.90;;;;;;5110647;28;19972;-74
2022/12/22 10:25:29;;;;;;;;;;;9.60;99.90;;;;;;5097429;28;20099;-70
2022/12/22 10:27:56;;;;;;;;;;;9.60;99.90;;;;;;5094826;28;19978;-74
2022/12/22 10:30:27;;;;;;;;;;;9.50;99.90;;;;;;5097641;28;19931;-76
2022/12/22 10:33:07;;;;;;;;;;;9.50;99.90;;;;;;5108788;28;19923;-76
2022/12/22 10:35:42;;;;;;;;;;;9.40;99.90;;;;;;5103365;27;19932;-77
2022/12/22 10:38:30;;;;;;;;;;;9.30;99.90;;;;;;5093561;28;19924;-77
2022/12/22 10:40:58;;;;;;;;;;;9.20;99.90;;;;;;5105854;28;19943;-77
2022/12/22 10:43:26;;;;;;;;;;;9.20;99.90;;;;;;5099181;28;19923;-74
2022/12/22 10:45:55;;;;;;;;;;;9.20;99.90;;;;;;5093259;28;19967;-76
2022/12/22 10:48:25;;;;;;;;;;;9.30;99.90;;;;;;5099572;28;19924;-75
2022/12/22 10:50:52;;;;;;;;;;;9.30;99.90;;;;;;5104877;28;20041;-75
2022/12/22 10:53:19;;;;;;;;;;;9.30;99.90;;;;;;5099143;28;19954;-76
2022/12/22 10:55:47;;;;;;;;;;;9.40;99.90;;;;;;5097627;28;20018;-76
2022/12/22 10:58:17;;;;;;;;;;;9.40;99.90;;;;;;5098566;28;19924;-76
2022/12/22 11:00:45;;;;;;;;;;;9.40;99.90;;;;;;5102673;28;20294;-76
2022/12/22 11:03:14;;;;;;;;;;;9.40;99.90;;;;;;5096854;28;19925;-75
2022/12/22 11:05:42;;;;;;;;;;;9.40;99.90;;;;;;5092720;28;20016;-75
2022/12/22 11:08:19;;;;;;;;;;;9.40;99.90;;;;;;5107057;28;19963;-76
2022/12/22 11:10:49;;;;;;;;;;;9.40;99.90;;;;;;5104635;28;19924;-75
2022/12/22 11:13:28;;;;;;;;;;;9.60;99.90;;;;;;5099224;28;19923;-76
2022/12/22 11:15:59;;;;;;;;;;;9.70;99.90;;;;;;5099740;28;19924;-71
2022/12/22 11:18:36;;;;;;;;;;;9.70;99.90;;;;;;5094178;28;19924;-75
2022/12/22 11:21:05;;;;;;;;;;;9.80;99.90;;;;;;5102377;28;19959;-75
2022/12/22 11:23:35;;;;;;;;;;;9.80;99.90;;;;;;5100350;28;19927;-75
2022/12/22 11:26:06;;;;;;;;;;;9.80;99.90;;;;;;5108996;28;19984;-74
2022/12/22 11:28:39;;;;;;;;;;;9.70;99.90;;;;;;5106363;28;19992;-75
2022/12/22 11:31:15;;;;;;;;;;;9.70;99.90;;;;;;5109251;28;20051;-75
2022/12/22 11:33:49;;;;;;;;;;;9.70;99.90;;;;;;5105554;28;20374;-75
2022/12/22 11:36:18;;;;;;;;;;;9.70;99.90;;;;;;5092356;28;19924;-75
2022/12/22 11:38:48;;;;;;;;;;;9.70;99.90;;;;;;5092673;28;20059;-76
2022/12/22 11:41:25;;;;;;;;;;;9.80;99.90;;;;;;5103326;28;20027;-76
2022/12/22 11:44:00;;;;;;;;;;;9.80;99.90;;;;;;5096192;28;19928;-75
2022/12/22 11:46:30;;;;;;;;;;;9.80;99.90;;;;;;5102701;28;19924;-75
2022/12/22 11:49:23;;;;;;;;;;;9.80;99.90;;;;;;5109189;28;19924;-75
2022/12/22 11:52:00;;;;;;;;;;;9.80;99.90;;;;;;5111480;28;20359;-76
2022/12/22 11:54:48;;;;;;;;;;;9.80;99.90;;;;;;5095714;28;20306;-76
2022/12/22 11:57:22;;;;;;;;;;;9.80;99.90;;;;;;5101175;28;19924;-76
2022/12/22 11:59:54;;;;;;;;;;;9.90;99.90;;;;;;5094456;28;19924;-75
2022/12/22 12:02:46;;;;;;;;;;;10.00;99.90;;;;;;5097724;28;20074;-76
2022/12/22 12:05:30;;;;;;;;;;;10.00;99.90;;;;;;5093663;28;19924;-76
2022/12/22 12:08:07;;;;;;;;;;;10.10;99.90;;;;;;5098480;28;20431;-75
2022/12/22 12:10:37;;;;;;;;;;;10.30;99.90;;;;;;5110149;28;19924;-74
2022/12/22 12:13:09;;;;;;;;;;;10.20;99.90;;;;;;5097238;28;19930;-74
2022/12/22 12:15:39;;;;;;;;;;;10.20;99.90;;;;;;5104602;28;20031;-76
2022/12/22 12:18:32;;;;;;;;;;;10.30;99.90;;;;;;5110436;28;19924;-76
2022/12/22 12:21:07;;;;;;;;;;;10.30;99.90;;;;;;5058205;28;19975;-75
2022/12/22 12:23:39;;;;;;;;;;;10.40;99.90;;;;;;5057471;28;19924;-75
2022/12/22 12:26:10;;;;;;;;;;;10.40;99.90;;;;;;5092184;28;20010;-75
2022/12/22 12:28:44;;;;;;;;;;;10.50;99.90;;;;;;5092581;28;19928;-75
2022/12/22 12:31:12;;;;;;;;;;;10.50;99.90;;;;;;5104040;28;19942;-75
2022/12/22 12:33:43;;;;;;;;;;;10.50;99.90;;;;;;5095204;28;19968;-76
2022/12/22 12:36:14;;;;;;;;;;;10.40;99.90;;;;;;5103552;28;19931;-76
2022/12/22 12:38:46;;;;;;;;;;;10.30;99.90;;;;;;5104864;28;19931;-76
2022/12/22 12:41:17;;;;;;;;;;;10.40;99.90;;;;;;5101706;28;19934;-76
2022/12/22 12:43:44;;;;;;;;;;;10.40;99.90;;;;;;5108090;28;19923;-76
2022/12/22 12:46:33;;;;;;;;;;;10.30;99.90;;;;;;5111693;28;19924;-76
2022/12/22 12:48:59;;;;;;;;;;;10.20;99.90;;;;;;5099209;28;19928;-77
2022/12/22 12:51:46;;;;;;;;;;;10.20;99.90;;;;;;5100691;28;20306;-71
2022/12/22 12:54:37;;;;;;;;;;;10.30;99.90;;;;;;5104593;28;19938;-72
2022/12/22 12:57:18;;;;;;;;;;;10.20;99.90;;;;;;5077842;28;19928;-75
2022/12/22 12:59:46;;;;;;;;;;;10.10;99.90;;;;;;5100702;28;19924;-70
2022/12/22 13:02:30;;;;;;;;;;;10.00;99.90;;;;;;5095563;28;19931;-74
2022/12/22 13:05:00;;;;;;;;;;;10.10;99.90;;;;;;5100591;28;19924;-74
2022/12/22 13:07:46;;;;;;;;;;;10.00;99.90;;;;;;5107589;28;19984;-76
2022/12/22 13:10:19;;;;;;;;;;;9.90;99.90;;;;;;5109049;28;20567;-76
2022/12/22 13:12:49;;;;;;;;;;;9.80;99.90;;;;;;5109351;28;19932;-75
2022/12/22 13:15:34;;;;;;;;;;;9.80;99.90;;;;;;5100577;28;19971;-75
2022/12/22 13:18:01;;;;;;;;;;;9.70;99.90;;;;;;5099429;28;19967;-75
2022/12/22 13:20:30;;;;;;;;;;;9.60;99.90;;;;;;5105455;28;19928;-75
2022/12/22 13:22:59;;;;;;;;;;;9.60;99.90;;;;;;5101175;28;19931;-73
2022/12/22 13:25:33;;;;;;;;;;;9.50;99.90;;;;;;5099406;28;19924;-76
2022/12/22 13:28:06;;;;;;;;;;;9.50;99.90;;;;;;5098722;28;20018;-75
2022/12/22 13:30:34;;;;;;;;;;;9.50;99.90;;;;;;5099971;28;19927;-76
2022/12/22 13:33:01;;;;;;;;;;;9.50;99.90;;;;;;5107749;28;20379;-75
2022/12/22 13:35:32;;;;;;;;;;;9.50;99.90;;;;;;5104950;28;20059;-75
2022/12/22 13:37:59;;;;;;;;;;;9.50;99.90;;;;;;5105411;28;19923;-76
2022/12/22 13:40:29;;;;;;;;;;;9.40;99.90;;;;;;5099923;28;19985;-75
2022/12/22 13:43:00;;;;;;;;;;;9.40;99.90;;;;;;5106773;28;20284;-74
2022/12/22 13:45:34;;;;;;;;;;;9.50;99.90;;;;;;5109150;28;19939;-76
2022/12/22 13:48:03;;;;;;;;;;;9.40;99.90;;;;;;5095944;28;19924;-76
2022/12/22 13:50:33;;;;;;;;;;;9.50;99.90;;;;;;5114764;28;20002;-73
2022/12/22 13:53:00;;;;;;;;;;;9.50;99.90;;;;;;5111913;28;19923;-74
2022/12/22 13:55:29;;;;;;;;;;;9.50;99.90;;;;;;5100788;28;19932;-74
2022/12/22 13:57:57;;;;;;;;;;;9.50;99.90;;;;;;5097152;28;20309;-75
2022/12/22 14:00:28;;;;;;;;;;;9.60;99.90;;;;;;5106488;28;19924;-74
2022/12/22 14:02:55;;;;;;;;;;;9.60;99.90;;;;;;5093471;28;19936;-75
2022/12/22 14:05:22;;;;;;;;;;;9.60;99.90;;;;;;5094785;28;19928;-76
2022/12/22 14:07:58;;;;;;;;;;;9.60;99.90;;;;;;5097167;28;19923;-74
2022/12/22 14:10:26;;;;;;;;;;;9.70;99.90;;;;;;5104144;28;19970;-74
2022/12/22 14:12:53;;;;;;;;;;;9.70;99.90;;;;;;5103935;28;20042;-75
2022/12/22 14:15:20;;;;;;;;;;;9.80;99.90;;;;;;5102923;28;19938;-73
2022/12/22 14:17:48;;;;;;;;;;;9.80;99.90;;;;;;5114326;27;19923;-73
2022/12/22 14:20:17;;;;;;;;;;;9.90;99.90;;;;;;5112722;27;19924;-73
2022/12/22 14:22:46;;;;;;;;;;;9.90;99.90;;;;;;5111136;28;20015;-74
2022/12/22 14:25:15;;;;;;;;;;;10.00;99.90;;;;;;5106630;28;20030;-75
2022/12/22 14:27:42;;;;;;;;;;;10.00;99.90;;;;;;5102420;28;19961;-75
2022/12/22 14:30:16;;;;;;;;;;;10.10;99.90;;;;;;5099485;28;20008;-74
2022/12/22 14:32:44;;;;;;;;;;;10.10;99.90;;;;;;5100179;28;19958;-74
2022/12/22 14:35:21;;;;;;;;;;;10.10;99.90;;;;;;5097314;28;20409;-73
2022/12/22 14:37:49;;;;;;;;;;;10.20;99.90;;;;;;5094612;28;20400;-72
2022/12/22 14:40:28;;;;;;;;;;;10.30;99.90;;;;;;5094772;28;19932;-73
2022/12/22 14:42:56;;;;;;;;;;;10.30;99.90;;;;;;5098989;28;19998;-75
2022/12/22 14:45:23;;;;;;;;;;;10.30;99.90;;;;;;5104113;28;19932;-75
2022/12/22 14:47:50;;;;;;;;;;;10.30;99.90;;;;;;5096173;28;19924;-76
2022/12/22 14:50:19;;;;;;;;;;;10.40;99.90;;;;;;5100820;28;21406;-76
2022/12/22 14:52:48;;;;;;;;;;;10.50;99.90;;;;;;5099838;28;19923;-79
2022/12/22 14:55:22;;;;;;;;;;;10.40;99.90;;;;;;5097439;28;20444;-75
2022/12/22 14:57:52;;;;;;;;;;;10.50;99.90;;;;;;5097317;28;19928;-74
2022/12/22 15:00:29;;;;;;;;;;;10.50;99.90;;;;;;5104735;28;19933;-73
2022/12/22 15:02:57;;;;;;;;;;;10.50;99.90;;;;;;5103734;28;19924;-74
2022/12/22 15:05:27;;;;;;;;;;;10.50;99.90;;;;;;5099431;28;19934;-74
2022/12/22 15:07:55;;;;;;;;;;;10.50;99.90;;;;;;5096493;28;19936;-75
2022/12/22 15:10:22;;;;;;;;;;;10.60;99.90;;;;;;5096409;28;19971;-74
2022/12/22 15:12:52;;;;;;;;;;;10.60;99.90;;;;;;5105893;28;20379;-75
2022/12/22 15:15:20;;;;;;;;;;;10.60;99.90;;;;;;5106603;28;20026;-73
2022/12/22 15:17:48;;;;;;;;;;;10.60;99.90;;;;;;5112566;28;19969;-73
2022/12/22 15:20:19;;;;;;;;;;;10.60;99.90;;;;;;5106965;28;19924;-73
2022/12/22 15:22:47;;;;;;;;;;;10.60;99.90;;;;;;5110119;28;19927;-73
2022/12/22 15:25:14;;;;;;;;;;;10.60;99.90;;;;;;5099446;28;20026;-73
2022/12/22 15:27:41;;;;;;;;;;;10.60;99.90;;;;;;5107048;28;20430;-77
2022/12/22 15:30:09;;;;;;;;;;;10.70;99.90;;;;;;5103667;28;20365;-74
2022/12/22 15:32:36;;;;;;;;;;;10.70;99.90;;;;;;5109608;28;20344;-75
2022/12/22 15:35:03;;;;;;;;;;;10.70;99.90;;;;;;5104904;28;20026;-75
2022/12/22 15:37:30;;;;;;;;;;;10.70;99.90;;;;;;5099831;28;19932;-75
2022/12/22 15:39:58;;;;;;;;;;;10.70;99.90;;;;;;5107218;28;20360;-75
2022/12/22 15:42:24;;;;;;;;;;;10.70;99.90;;;;;;5096750;28;19924;-68
2022/12/22 15:44:51;;;;;;;;;;;10.70;99.90;;;;;;5104617;28;19985;-68
2022/12/22 15:47:18;;;;;;;;;;;10.80;99.90;;;;;;5098106;27;19950;-69
2022/12/22 15:49:45;;;;;;;;;;;10.70;99.90;;;;;;5097316;28;20437;-69
2022/12/22 15:52:13;;;;;;;;;;;10.80;99.90;;;;;;5100919;28;19930;-68
2022/12/22 15:54:40;;;;;;;;;;;10.80;99.90;;;;;;5106409;28;20321;-68
2022/12/22 15:57:10;;;;;;;;;;;10.70;99.90;;;;;;5109796;28;19924;-70
2022/12/22 15:59:38;;;;;;;;;;;10.70;99.90;;;;;;5097899;28;19991;-75
2022/12/22 16:02:10;;;;;;;;;;;10.70;99.90;;;;;;5098536;28;19931;-74
2022/12/22 16:04:39;;;;;;;;;;;10.70;99.90;;;;;;5104780;28;19934;-76
2022/12/22 16:07:06;;;;;;;;;;;10.70;99.90;;;;;;5102862;28;20362;-73
2022/12/22 16:09:36;;;;;;;;;;;10.70;99.90;;;;;;5102434;28;19930;-75
2022/12/22 16:12:03;;;;;;;;;;;10.70;99.90;;;;;;5108186;28;19930;-75
2022/12/22 16:14:31;;;;;;;;;;;10.70;99.90;;;;;;5103077;28;20014;-77
2022/12/22 16:16:58;;;;;;;;;;;10.70;99.90;;;;;;5102667;28;20020;-74
2022/12/22 16:19:25;;;;;;;;;;;10.70;99.90;;;;;;5110126;28;19923;-75
2022/12/22 16:21:52;;;;;;;;;;;10.70;99.90;;;;;;5097941;28;19923;-74
2022/12/22 16:24:23;;;;;;;;;;;10.70;99.90;;;;;;5101884;28;19928;-74
2022/12/22 16:26:50;;;;;;;;;;;10.70;99.90;;;;;;5105474;28;20414;-75
2022/12/22 16:29:17;;;;;;;;;;;10.60;99.90;;;;;;5102134;28;19930;-74
2022/12/22 16:31:45;;;;;;;;;;;10.70;99.90;;;;;;5101639;28;20019;-76
2022/12/22 16:34:12;;;;;;;;;;;10.60;99.90;;;;;;5097347;28;19936;-74
2022/12/22 16:36:39;;;;;;;;;;;10.70;99.90;;;;;;5098253;28;20358;-72
2022/12/22 16:39:05;;;;;;;;;;;10.70;99.90;;;;;;5094204;28;20421;-74
2022/12/22 16:41:32;;;;;;;;;;;10.60;99.90;;;;;;5103124;28;19969;-76
2022/12/22 16:43:59;;;;;;;;;;;10.70;99.90;;;;;;5102709;28;20336;-74
2022/12/22 16:46:26;;;;;;;;;;;10.60;99.90;;;;;;5109324;28;19924;-75
2022/12/22 16:48:56;;;;;;;;;;;10.60;99.90;;;;;;5106397;28;19931;-77
2022/12/22 16:51:24;;;;;;;;;;;10.70;99.90;;;;;;5108364;28;20441;-75
2022/12/22 16:53:50;;;;;;;;;;;10.70;99.90;;;;;;5112443;28;19927;-75
2022/12/22 16:56:19;;;;;;;;;;;10.70;99.90;;;;;;5103879;28;19938;-75
2022/12/22 16:58:46;;;;;;;;;;;10.70;99.90;;;;;;5112262;28;19935;-75
2022/12/22 17:01:19;;;;;;;;;;;10.70;99.90;;;;;;5105005;28;20390;-73
2022/12/22 17:03:46;;;;;;;;;;;10.70;99.90;;;;;;5110020;28;19943;-75
2022/12/22 17:06:14;;;;;;;;;;;10.70;99.90;;;;;;5109415;28;20007;-74
2022/12/22 17:08:43;;;;;;;;;;;10.70;99.90;;;;;;5111506;28;20375;-72
2022/12/22 17:11:10;;;;;;;;;;;10.80;99.90;;;;;;5095863;28;20400;-75
2022/12/22 17:13:37;;;;;;;;;;;10.80;99.90;;;;;;5098334;28;19982;-74
2022/12/22 17:16:04;;;;;;;;;;;10.80;99.90;;;;;;5111330;28;19924;-74
2022/12/22 17:18:31;;;;;;;;;;;10.80;99.90;;;;;;5100994;28;20795;-76
2022/12/22 17:21:00;;;;;;;;;;;10.80;99.90;;;;;;5102620;28;19932;-73
2022/12/22 17:23:31;;;;;;;;;;;10.80;99.90;;;;;;5106832;28;20042;-75
2022/12/22 17:25:58;;;;;;;;;;;10.80;99.90;;;;;;5099526;28;19947;-73
2022/12/22 17:28:25;;;;;;;;;;;10.80;99.90;;;;;;5103447;28;19930;-74
2022/12/22 17:30:51;;;;;;;;;;;10.80;99.90;;;;;;5095106;28;19931;-74
2022/12/22 17:33:18;;;;;;;;;;;10.80;99.90;;;;;;5103657;28;19960;-75
2022/12/22 17:35:46;;;;;;;;;;;10.80;99.90;;;;;;5099440;28;20015;-75
2022/12/22 17:38:13;;;;;;;;;;;10.80;99.90;;;;;;5101151;28;19932;-74
2022/12/22 17:40:42;;;;;;;;;;;10.90;99.90;;;;;;5105054;28;19993;-77
2022/12/22 17:43:12;;;;;;;;;;;10.90;99.90;;;;;;5101030;28;20621;-73
2022/12/22 17:45:38;;;;;;;;;;;10.90;99.90;;;;;;5102688;28;19946;-73
2022/12/22 17:48:05;;;;;;;;;;;10.90;99.90;;;;;;5096603;28;19927;-74
2022/12/22 17:50:32;;;;;;;;;;;11.00;99.90;;;;;;5097439;28;19980;-75
2022/12/22 17:53:00;;;;;;;;;;;11.00;99.90;;;;;;5102888;28;19924;-74
2022/12/22 17:55:28;;;;;;;;;;;11.00;99.90;;;;;;5105427;28;19963;-74
2022/12/22 17:57:56;;;;;;;;;;;11.00;99.90;;;;;;5100738;28;19975;-74
2022/12/22 18:00:24;;;;;;;;;;;11.10;99.90;;;;;;5101988;28;20008;-74
2022/12/22 18:02:51;;;;;;;;;;;11.00;99.90;;;;;;5103156;28;20026;-75
2022/12/22 18:05:19;;;;;;;;;;;11.00;99.90;;;;;;5103619;28;19923;-75
2022/12/22 18:07:47;;;;;;;;;;;11.00;99.90;;;;;;5104440;28;19952;-76
2022/12/22 18:10:19;;;;;;;;;;;10.90;99.90;;;;;;5110599;28;19931;-75
2022/12/22 18:12:47;;;;;;;;;;;10.90;99.90;;;;;;5107613;28;19924;-74
2022/12/22 18:15:17;;;;;;;;;;;10.90;99.90;;;;;;5102044;28;19924;-76
2022/12/22 18:17:48;;;;;;;;;;;10.80;99.90;;;;;;5110963;28;20027;-74
2022/12/22 18:20:15;;;;;;;;;;;10.80;99.90;;;;;;5106961;28;20374;-75
2022/12/22 18:22:42;;;;;;;;;;;10.80;99.90;;;;;;5109542;28;19928;-74